Time;durP1;ratioP1;P1;durP2;ratioP2;P2;SDS_P1;SDS_P2;PMS_P1;PMS_P2;Temp;Humidity;BMP_temperature;BMP_pressure;BME280_temperature;BME280_humidity;BME280_pressure;Samples;Min_cycle;Max_cycle;Signal;HPM_P1;HPM_P2
2023/12/30 00:01:59;;;;;;;;;;;23.80;40.10;;;;;;5115450;28;19916;-67
2023/12/30 00:04:24;;;;;;;;;;;23.70;40.30;;;;;;5114503;28;20353;-67
2023/12/30 00:06:50;;;;;;;;;;;23.50;40.50;;;;;;5114664;28;20345;-67
2023/12/30 00:09:16;;;;;;;;;;;23.50;40.70;;;;;;5115067;28;19985;-68
2023/12/30 00:11:41;;;;;;;;;;;23.30;40.90;;;;;;5114329;28;20015;-66
2023/12/30 00:14:07;;;;;;;;;;;23.10;41.10;;;;;;5115485;28;19929;-68
2023/12/30 00:16:32;;;;;;;;;;;22.90;41.30;;;;;;5114268;28;19916;-67
2023/12/30 00:18:58;;;;;;;;;;;22.80;41.60;;;;;;5114222;28;19916;-68
2023/12/30 00:21:23;;;;;;;;;;;22.60;41.90;;;;;;5115051;28;20255;-68
2023/12/30 00:23:52;;;;;;;;;;;22.40;42.20;;;;;;5113753;28;19922;-68
2023/12/30 00:26:20;;;;;;;;;;;22.20;42.50;;;;;;5113719;28;19920;-68
2023/12/30 00:28:46;;;;;;;;;;;22.00;42.80;;;;;;5113325;28;19920;-68
2023/12/30 00:31:19;;;;;;;;;;;21.80;43.20;;;;;;5113607;28;20294;-68
2023/12/30 00:33:45;;;;;;;;;;;21.60;43.40;;;;;;5113642;28;20363;-68
2023/12/30 00:36:10;;;;;;;;;;;21.40;43.70;;;;;;5113740;28;19923;-68
2023/12/30 00:38:35;;;;;;;;;;;21.20;43.90;;;;;;5113685;28;19916;-68
2023/12/30 00:41:07;;;;;;;;;;;21.10;44.20;;;;;;5114711;28;19915;-68
2023/12/30 00:43:37;;;;;;;;;;;20.90;44.50;;;;;;5113434;28;19923;-68
2023/12/30 00:46:02;;;;;;;;;;;20.70;44.60;;;;;;5113609;28;19915;-68
2023/12/30 00:48:28;;;;;;;;;;;20.70;44.90;;;;;;5113400;28;20429;-68
2023/12/30 00:50:56;;;;;;;;;;;20.50;45.10;;;;;;5114820;28;19920;-68
2023/12/30 00:53:25;;;;;;;;;;;20.40;45.30;;;;;;5113458;28;19923;-68
2023/12/30 00:55:50;;;;;;;;;;;20.30;45.50;;;;;;5114031;28;19916;-68
2023/12/30 00:58:16;;;;;;;;;;;20.20;45.60;;;;;;5113412;28;19938;-69
2023/12/30 01:00:41;;;;;;;;;;;20.10;45.70;;;;;;5113094;28;19915;-68
2023/12/30 01:03:07;;;;;;;;;;;20.00;45.90;;;;;;5113476;28;20282;-68
2023/12/30 01:05:32;;;;;;;;;;;19.80;46.00;;;;;;5113585;28;19916;-68
2023/12/30 01:07:58;;;;;;;;;;;19.80;46.20;;;;;;5112729;28;19919;-68
2023/12/30 01:10:23;;;;;;;;;;;19.70;46.30;;;;;;5112926;28;19922;-68
2023/12/30 01:12:49;;;;;;;;;;;19.60;46.50;;;;;;5111875;28;20276;-68
2023/12/30 01:15:14;;;;;;;;;;;19.50;46.50;;;;;;5113921;28;19916;-68
2023/12/30 01:17:40;;;;;;;;;;;19.50;46.70;;;;;;5112978;28;19961;-68
2023/12/30 01:20:06;;;;;;;;;;;19.40;46.80;;;;;;5112666;28;20437;-68
2023/12/30 01:22:31;;;;;;;;;;;19.30;46.90;;;;;;5112617;28;19919;-68
2023/12/30 01:24:57;;;;;;;;;;;19.20;47.00;;;;;;5113790;28;19915;-68
2023/12/30 01:27:22;;;;;;;;;;;19.20;47.10;;;;;;5112244;28;19922;-68
2023/12/30 01:29:48;;;;;;;;;;;19.20;47.30;;;;;;5112416;28;19971;-68
2023/12/30 01:32:13;;;;;;;;;;;19.10;47.30;;;;;;5112572;28;19919;-68
2023/12/30 01:34:39;;;;;;;;;;;19.00;47.40;;;;;;5112377;28;19916;-69
2023/12/30 01:37:04;;;;;;;;;;;18.90;47.50;;;;;;5113853;28;19916;-68
2023/12/30 01:39:30;;;;;;;;;;;18.90;47.60;;;;;;5112426;28;19955;-68
2023/12/30 01:41:55;;;;;;;;;;;18.90;47.70;;;;;;5112365;28;19958;-68
2023/12/30 01:44:21;;;;;;;;;;;18.80;47.70;;;;;;5112531;28;19922;-69
2023/12/30 01:46:49;;;;;;;;;;;18.80;47.80;;;;;;5112490;28;19916;-68
2023/12/30 01:49:16;;;;;;;;;;;18.70;47.80;;;;;;5112039;28;20301;-68
2023/12/30 01:51:41;;;;;;;;;;;18.70;47.90;;;;;;5095532;28;20231;-68
2023/12/30 01:54:08;;;;;;;;;;;18.70;48.00;;;;;;5112001;28;20011;-68
2023/12/30 01:56:33;;;;;;;;;;;18.60;48.00;;;;;;5113273;28;20274;-68
2023/12/30 01:58:59;;;;;;;;;;;18.50;48.10;;;;;;5111948;28;19916;-68
2023/12/30 02:01:26;;;;;;;;;;;18.50;48.30;;;;;;5111994;28;19923;-68
2023/12/30 02:03:52;;;;;;;;;;;18.40;48.30;;;;;;5113279;28;19951;-68
2023/12/30 02:06:18;;;;;;;;;;;18.30;48.50;;;;;;5111896;28;20340;-68
2023/12/30 02:08:43;;;;;;;;;;;18.20;48.60;;;;;;5111878;28;19931;-68
2023/12/30 02:11:10;;;;;;;;;;;18.20;48.80;;;;;;5112964;28;19977;-68
2023/12/30 02:13:36;;;;;;;;;;;18.10;48.90;;;;;;5112067;28;19961;-68
2023/12/30 02:16:02;;;;;;;;;;;18.00;49.00;;;;;;5113064;28;20294;-68
2023/12/30 02:18:27;;;;;;;;;;;18.00;49.10;;;;;;5111739;28;20427;-69
2023/12/30 02:20:53;;;;;;;;;;;17.90;49.20;;;;;;5113217;28;19999;-68
2023/12/30 02:23:18;;;;;;;;;;;17.90;49.30;;;;;;5112721;28;19966;-68
2023/12/30 02:25:44;;;;;;;;;;;17.80;49.40;;;;;;5112787;28;19926;-68
2023/12/30 02:28:09;;;;;;;;;;;17.80;49.50;;;;;;5112349;28;19963;-68
2023/12/30 02:30:35;;;;;;;;;;;17.70;49.60;;;;;;5112803;28;20366;-68
2023/12/30 02:33:00;;;;;;;;;;;17.60;49.70;;;;;;5111408;28;19916;-68
2023/12/30 02:35:27;;;;;;;;;;;17.60;49.80;;;;;;5111527;28;19916;-68
2023/12/30 02:37:53;;;;;;;;;;;17.60;50.00;;;;;;5113279;28;19977;-68
2023/12/30 02:40:18;;;;;;;;;;;17.50;50.00;;;;;;5094566;28;19973;-68
2023/12/30 02:42:44;;;;;;;;;;;17.50;50.20;;;;;;5111779;28;19920;-67
2023/12/30 02:45:11;;;;;;;;;;;17.40;50.20;;;;;;5112852;28;20359;-68
2023/12/30 02:47:36;;;;;;;;;;;17.40;50.30;;;;;;5112860;28;19923;-68
2023/12/30 02:50:02;;;;;;;;;;;17.30;50.40;;;;;;5111689;28;19917;-68
2023/12/30 02:52:30;;;;;;;;;;;17.30;50.50;;;;;;5111406;28;19916;-68
2023/12/30 02:54:56;;;;;;;;;;;17.30;50.60;;;;;;5111357;28;19964;-68
2023/12/30 02:57:23;;;;;;;;;;;17.20;50.70;;;;;;5111621;28;19915;-68
2023/12/30 02:59:49;;;;;;;;;;;17.10;50.70;;;;;;5112532;28;20010;-69
2023/12/30 03:02:14;;;;;;;;;;;17.10;50.90;;;;;;5112771;28;19967;-67
2023/12/30 03:04:40;;;;;;;;;;;17.00;51.00;;;;;;5111312;28;20385;-68
2023/12/30 03:07:05;;;;;;;;;;;17.00;51.10;;;;;;5112491;28;19922;-67
2023/12/30 03:09:31;;;;;;;;;;;16.90;51.20;;;;;;5111287;28;19920;-67
2023/12/30 03:11:56;;;;;;;;;;;16.90;51.40;;;;;;5111439;28;19923;-68
2023/12/30 03:14:22;;;;;;;;;;;16.80;51.50;;;;;;5111204;28;19923;-68
2023/12/30 03:16:47;;;;;;;;;;;16.80;51.60;;;;;;5112555;28;19916;-68
2023/12/30 03:19:13;;;;;;;;;;;16.70;51.70;;;;;;5112449;28;19916;-68
2023/12/30 03:21:38;;;;;;;;;;;16.70;51.60;;;;;;5112604;28;20282;-68
2023/12/30 03:24:04;;;;;;;;;;;16.70;51.70;;;;;;5111453;28;19919;-67
2023/12/30 03:26:30;;;;;;;;;;;16.70;51.80;;;;;;5111369;28;20385;-68
2023/12/30 03:28:55;;;;;;;;;;;16.60;51.90;;;;;;5110635;28;20386;-68
2023/12/30 03:34:00;;;;;;;;;;;16.60;51.90;;;;;;5090085;28;19908;-68
2023/12/30 03:36:26;;;;;;;;;;;16.60;51.90;;;;;;5088625;28;19916;-68
2023/12/30 03:38:52;;;;;;;;;;;16.60;52.00;;;;;;5089046;28;19974;-68
2023/12/30 03:41:21;;;;;;;;;;;16.60;52.10;;;;;;5089785;28;19952;-68
2023/12/30 03:43:49;;;;;;;;;;;16.50;52.20;;;;;;5090132;28;19942;-69
2023/12/30 03:46:15;;;;;;;;;;;16.50;52.30;;;;;;5090045;28;19916;-68
2023/12/30 03:48:40;;;;;;;;;;;16.70;52.50;;;;;;5088423;28;19962;-68
2023/12/30 03:51:06;;;;;;;;;;;17.20;51.80;;;;;;5088575;28;19920;-68
2023/12/30 03:53:32;;;;;;;;;;;17.70;50.70;;;;;;5088329;28;19920;-68
2023/12/30 03:55:57;;;;;;;;;;;18.30;49.30;;;;;;5089666;28;19922;-67
2023/12/30 03:58:23;;;;;;;;;;;19.20;47.80;;;;;;5088557;28;20011;-67
2023/12/30 04:00:48;;;;;;;;;;;20.00;46.20;;;;;;5089963;28;19916;-68
2023/12/30 04:03:14;;;;;;;;;;;20.70;44.80;;;;;;5088478;28;20314;-68
2023/12/30 04:05:40;;;;;;;;;;;21.40;44.00;;;;;;5088504;28;20367;-66
2023/12/30 04:08:05;;;;;;;;;;;22.00;42.50;;;;;;5089428;28;20015;-67
2023/12/30 04:10:31;;;;;;;;;;;22.50;41.60;;;;;;5088110;28;19944;-67
2023/12/30 04:12:57;;;;;;;;;;;23.00;40.80;;;;;;5071059;28;19920;-67
2023/12/30 04:15:22;;;;;;;;;;;23.40;40.00;;;;;;5088334;28;20007;-67
2023/12/30 04:17:48;;;;;;;;;;;23.80;39.50;;;;;;5089142;28;20011;-68
2023/12/30 04:20:13;;;;;;;;;;;24.10;39.10;;;;;;5087904;28;20003;-67
2023/12/30 04:22:39;;;;;;;;;;;24.20;38.70;;;;;;5089166;28;19999;-67
2023/12/30 04:25:05;;;;;;;;;;;24.30;38.70;;;;;;5088163;28;19916;-66
2023/12/30 04:27:33;;;;;;;;;;;24.20;38.50;;;;;;5088993;28;20421;-67
2023/12/30 04:29:59;;;;;;;;;;;24.20;38.70;;;;;;5087657;28;19916;-67
2023/12/30 04:32:25;;;;;;;;;;;24.10;38.80;;;;;;5087355;28;19921;-68
2023/12/30 04:34:51;;;;;;;;;;;24.00;38.90;;;;;;5088923;28;19942;-66
2023/12/30 04:37:17;;;;;;;;;;;23.90;39.10;;;;;;5088821;28;19916;-67
2023/12/30 04:39:42;;;;;;;;;;;23.70;39.40;;;;;;5087688;28;19921;-68
2023/12/30 04:42:08;;;;;;;;;;;23.50;39.60;;;;;;5088671;28;20011;-68
2023/12/30 04:44:33;;;;;;;;;;;23.30;39.80;;;;;;5079402;28;19917;-68
2023/12/30 04:46:59;;;;;;;;;;;23.20;40.10;;;;;;5075079;28;19924;-68
2023/12/30 04:49:24;;;;;;;;;;;23.00;40.30;;;;;;5075039;28;19926;-68
2023/12/30 04:51:50;;;;;;;;;;;22.80;40.70;;;;;;5073981;28;20244;-68
2023/12/30 04:54:15;;;;;;;;;;;22.60;40.80;;;;;;5074960;28;20479;-68
2023/12/30 04:56:41;;;;;;;;;;;22.40;41.20;;;;;;5074984;28;19916;-68
2023/12/30 04:59:07;;;;;;;;;;;22.20;41.50;;;;;;5074721;28;20418;-68
2023/12/30 05:01:33;;;;;;;;;;;22.00;41.80;;;;;;5073903;28;19923;-68
2023/12/30 05:03:59;;;;;;;;;;;21.80;42.10;;;;;;5074884;28;19916;-68
2023/12/30 05:06:24;;;;;;;;;;;21.60;42.30;;;;;;5073844;28;19916;-68
2023/12/30 05:08:51;;;;;;;;;;;21.40;42.60;;;;;;5073496;28;19921;-69
2023/12/30 05:11:16;;;;;;;;;;;21.30;42.90;;;;;;5073634;28;19977;-68
2023/12/30 05:13:42;;;;;;;;;;;21.10;43.20;;;;;;5073270;28;20367;-68
2023/12/30 05:16:07;;;;;;;;;;;20.90;43.40;;;;;;5074586;28;19967;-68
2023/12/30 05:18:33;;;;;;;;;;;20.80;43.60;;;;;;5073322;28;19923;-68
2023/12/30 05:20:59;;;;;;;;;;;20.70;43.90;;;;;;5074470;28;19916;-68
2023/12/30 05:23:24;;;;;;;;;;;20.50;44.10;;;;;;5073151;28;19917;-68
2023/12/30 05:25:50;;;;;;;;;;;20.40;44.30;;;;;;5073463;28;19917;-67
2023/12/30 05:28:15;;;;;;;;;;;20.30;44.30;;;;;;5073523;28;20270;-68
2023/12/30 05:30:41;;;;;;;;;;;20.20;44.40;;;;;;5074465;28;20015;-68
2023/12/30 05:33:07;;;;;;;;;;;20.10;44.60;;;;;;5087375;28;20007;-68
2023/12/30 05:35:33;;;;;;;;;;;20.10;44.80;;;;;;5076590;28;19920;-68
2023/12/30 05:37:58;;;;;;;;;;;19.90;44.90;;;;;;5094542;28;19916;-68
2023/12/30 05:40:24;;;;;;;;;;;19.80;45.10;;;;;;5094378;28;20323;-69
2023/12/30 05:42:49;;;;;;;;;;;19.80;45.20;;;;;;5076210;28;19916;-67
2023/12/30 05:45:15;;;;;;;;;;;19.70;45.30;;;;;;5094202;28;19950;-68
2023/12/30 05:47:41;;;;;;;;;;;19.60;45.40;;;;;;5076371;28;19916;-67
2023/12/30 05:50:06;;;;;;;;;;;19.60;45.60;;;;;;5076377;28;19916;-68
2023/12/30 05:52:32;;;;;;;;;;;19.50;45.70;;;;;;5094246;28;19930;-67
2023/12/30 05:54:58;;;;;;;;;;;19.40;45.80;;;;;;5075686;28;20444;-69
2023/12/30 05:57:24;;;;;;;;;;;19.30;45.90;;;;;;5075315;28;19916;-67
2023/12/30 05:59:49;;;;;;;;;;;19.30;46.00;;;;;;5093970;28;19920;-68
2023/12/30 06:02:15;;;;;;;;;;;19.20;46.00;;;;;;5076030;28;19972;-68
2023/12/30 06:04:41;;;;;;;;;;;19.20;46.10;;;;;;5093871;28;19961;-67
2023/12/30 06:07:07;;;;;;;;;;;19.20;46.20;;;;;;5075936;28;19920;-67
2023/12/30 06:09:32;;;;;;;;;;;19.10;46.30;;;;;;5093884;28;19920;-68
2023/12/30 06:11:58;;;;;;;;;;;19.10;46.30;;;;;;5075946;28;19927;-69
2023/12/30 06:14:23;;;;;;;;;;;19.00;46.30;;;;;;5076345;28;19915;-67
2023/12/30 06:16:49;;;;;;;;;;;19.00;46.40;;;;;;5075765;28;19916;-67
2023/12/30 06:19:16;;;;;;;;;;;18.90;46.50;;;;;;5093643;28;20336;-68
2023/12/30 06:21:42;;;;;;;;;;;18.90;46.60;;;;;;5059424;28;19923;-67
2023/12/30 06:24:08;;;;;;;;;;;18.80;46.70;;;;;;5092320;28;20367;-68
2023/12/30 06:26:37;;;;;;;;;;;18.70;46.80;;;;;;5075582;28;19922;-68
2023/12/30 06:29:04;;;;;;;;;;;18.70;47.00;;;;;;5093447;28;19924;-67
2023/12/30 06:31:29;;;;;;;;;;;18.60;47.10;;;;;;5075473;28;19922;-67
2023/12/30 06:33:55;;;;;;;;;;;18.50;47.20;;;;;;5074789;28;20007;-68
2023/12/30 06:36:21;;;;;;;;;;;18.40;47.30;;;;;;5075407;28;20264;-68
2023/12/30 06:38:47;;;;;;;;;;;18.40;47.50;;;;;;5075124;28;19919;-68
2023/12/30 06:41:12;;;;;;;;;;;18.30;47.60;;;;;;5075320;28;19920;-67
2023/12/30 06:43:38;;;;;;;;;;;18.20;47.70;;;;;;5093192;28;19916;-67
2023/12/30 06:46:04;;;;;;;;;;;18.20;47.80;;;;;;5075378;28;20363;-67
2023/12/30 06:48:29;;;;;;;;;;;18.10;47.90;;;;;;5074780;28;20005;-68
2023/12/30 06:50:56;;;;;;;;;;;18.00;48.00;;;;;;5075210;28;19953;-68
2023/12/30 06:53:22;;;;;;;;;;;18.00;48.20;;;;;;5074867;28;19920;-68
2023/12/30 06:55:48;;;;;;;;;;;17.90;48.30;;;;;;5058538;28;19923;-67
2023/12/30 06:58:13;;;;;;;;;;;17.90;48.40;;;;;;5092958;28;19916;-67
2023/12/30 07:00:39;;;;;;;;;;;17.80;48.50;;;;;;5075085;28;19922;-68
2023/12/30 07:03:05;;;;;;;;;;;17.80;48.60;;;;;;5075031;28;19916;-70
2023/12/30 07:05:35;;;;;;;;;;;17.70;48.70;;;;;;5075295;28;19916;-68
2023/12/30 07:08:01;;;;;;;;;;;17.70;48.80;;;;;;5074446;28;19956;-68
2023/12/30 07:10:27;;;;;;;;;;;17.60;48.90;;;;;;5092841;28;19959;-68
2023/12/30 07:12:52;;;;;;;;;;;17.60;49.00;;;;;;5074712;28;19924;-69
2023/12/30 07:15:18;;;;;;;;;;;17.50;49.10;;;;;;5075029;28;19916;-68
2023/12/30 07:17:45;;;;;;;;;;;17.50;49.20;;;;;;5074764;28;19943;-68
2023/12/30 07:20:11;;;;;;;;;;;17.40;49.20;;;;;;5074509;28;19942;-68
2023/12/30 07:22:36;;;;;;;;;;;17.30;49.30;;;;;;5074812;28;19920;-67
2023/12/30 07:25:02;;;;;;;;;;;17.30;49.50;;;;;;5074451;28;19924;-68
2023/12/30 07:27:28;;;;;;;;;;;17.30;49.60;;;;;;5074778;28;19959;-67
2023/12/30 07:29:53;;;;;;;;;;;17.20;49.70;;;;;;5074614;28;20014;-68
2023/12/30 07:32:19;;;;;;;;;;;17.20;49.80;;;;;;5092452;28;20304;-68
2023/12/30 07:34:44;;;;;;;;;;;17.20;49.90;;;;;;5074646;28;19969;-67
2023/12/30 07:37:19;;;;;;;;;;;17.10;50.00;;;;;;5074603;28;20267;-66
2023/12/30 07:39:44;;;;;;;;;;;17.00;50.20;;;;;;5074494;28;20347;-68
2023/12/30 07:42:10;;;;;;;;;;;17.00;50.30;;;;;;5074279;28;19923;-68
2023/12/30 07:44:37;;;;;;;;;;;16.90;50.50;;;;;;5074534;28;19916;-68
2023/12/30 07:47:04;;;;;;;;;;;16.90;50.60;;;;;;5092304;28;20278;-68
2023/12/30 07:49:29;;;;;;;;;;;16.80;50.60;;;;;;5092497;28;20315;-68
2023/12/30 07:51:55;;;;;;;;;;;16.80;50.70;;;;;;5074400;28;19977;-67
2023/12/30 07:54:21;;;;;;;;;;;16.70;50.80;;;;;;5092602;28;19916;-67
2023/12/30 07:56:46;;;;;;;;;;;16.70;50.80;;;;;;5074355;28;19926;-67
2023/12/30 07:59:12;;;;;;;;;;;16.70;51.10;;;;;;5074607;28;20366;-68
2023/12/30 08:01:44;;;;;;;;;;;16.70;51.00;;;;;;5074396;28;20395;-68
2023/12/30 08:04:10;;;;;;;;;;;16.70;51.10;;;;;;5092365;28;19916;-68
2023/12/30 08:06:35;;;;;;;;;;;17.10;50.90;;;;;;5074398;28;19932;-68
2023/12/30 08:09:01;;;;;;;;;;;17.40;50.10;;;;;;5092278;28;20377;-68
2023/12/30 08:11:27;;;;;;;;;;;17.80;49.40;;;;;;5092142;28;20359;-68
2023/12/30 08:13:52;;;;;;;;;;;18.30;48.50;;;;;;5073970;28;19924;-68
2023/12/30 08:16:18;;;;;;;;;;;18.80;47.40;;;;;;5074002;28;19916;-68
2023/12/30 08:18:44;;;;;;;;;;;19.40;46.30;;;;;;5075118;28;19916;-68
2023/12/30 08:21:10;;;;;;;;;;;19.90;45.30;;;;;;5077818;28;19916;-67
2023/12/30 08:23:35;;;;;;;;;;;20.40;44.30;;;;;;5095815;28;19916;-67
2023/12/30 08:26:01;;;;;;;;;;;21.00;43.50;;;;;;5077994;28;20398;-67
2023/12/30 08:28:26;;;;;;;;;;;21.50;42.50;;;;;;5077872;28;20363;-67
2023/12/30 08:30:54;;;;;;;;;;;22.00;41.70;;;;;;5077455;28;19923;-67
2023/12/30 08:33:20;;;;;;;;;;;22.40;40.90;;;;;;5095330;28;20371;-67
2023/12/30 08:35:45;;;;;;;;;;;22.80;40.20;;;;;;5095800;28;19916;-67
2023/12/30 08:38:11;;;;;;;;;;;23.20;39.70;;;;;;5095500;28;19961;-67
2023/12/30 08:40:36;;;;;;;;;;;23.50;39.30;;;;;;5077720;28;20371;-67
2023/12/30 08:43:02;;;;;;;;;;;23.70;38.90;;;;;;5077200;28;19920;-67
2023/12/30 08:45:30;;;;;;;;;;;23.80;38.80;;;;;;5077671;28;19916;-68
2023/12/30 08:47:56;;;;;;;;;;;23.80;38.70;;;;;;5077053;28;20383;-67
2023/12/30 08:50:21;;;;;;;;;;;23.70;38.70;;;;;;5077494;28;19966;-67
2023/12/30 08:52:47;;;;;;;;;;;23.60;38.70;;;;;;5095352;28;20010;-67
2023/12/30 08:55:16;;;;;;;;;;;23.50;38.90;;;;;;5095397;28;19926;-68
2023/12/30 08:57:43;;;;;;;;;;;23.40;39.20;;;;;;5077048;28;19916;-68
2023/12/30 09:00:08;;;;;;;;;;;23.30;39.40;;;;;;5077374;28;19938;-67
2023/12/30 09:02:35;;;;;;;;;;;23.10;39.80;;;;;;5076986;28;20416;-68
2023/12/30 09:05:02;;;;;;;;;;;23.00;39.80;;;;;;5095029;28;19916;-67
2023/12/30 09:07:28;;;;;;;;;;;22.80;40.00;;;;;;5095044;28;20029;-67
2023/12/30 09:09:54;;;;;;;;;;;22.60;40.20;;;;;;5094034;28;20270;-68
2023/12/30 09:12:19;;;;;;;;;;;22.50;40.40;;;;;;5095053;28;19920;-68
2023/12/30 09:14:45;;;;;;;;;;;22.30;40.70;;;;;;5077246;28;19916;-68
2023/12/30 09:17:10;;;;;;;;;;;22.10;41.00;;;;;;5094992;28;20419;-69
2023/12/30 09:19:36;;;;;;;;;;;21.90;41.30;;;;;;5076868;28;19916;-68
2023/12/30 09:22:02;;;;;;;;;;;21.70;41.50;;;;;;5076853;28;19932;-68
2023/12/30 09:24:28;;;;;;;;;;;21.50;41.80;;;;;;5076845;28;19916;-68
2023/12/30 09:26:54;;;;;;;;;;;21.30;42.10;;;;;;5076829;28;20313;-68
2023/12/30 09:29:19;;;;;;;;;;;21.20;42.40;;;;;;5094745;28;19920;-68
2023/12/30 09:31:48;;;;;;;;;;;21.10;42.60;;;;;;5075947;28;19916;-68
2023/12/30 09:34:13;;;;;;;;;;;20.90;42.90;;;;;;5076622;28;19920;-68
2023/12/30 09:36:39;;;;;;;;;;;20.70;43.10;;;;;;5076623;28;19941;-68
2023/12/30 09:39:05;;;;;;;;;;;20.60;43.40;;;;;;5076688;28;19916;-68
2023/12/30 09:41:31;;;;;;;;;;;20.40;43.60;;;;;;5076588;28;19916;-68
2023/12/30 09:43:58;;;;;;;;;;;20.30;43.80;;;;;;5094370;28;20440;-68
2023/12/30 09:46:24;;;;;;;;;;;20.20;43.90;;;;;;5076450;28;19938;-68
2023/12/30 09:48:51;;;;;;;;;;;20.10;44.20;;;;;;5076334;28;19916;-68
2023/12/30 09:51:17;;;;;;;;;;;20.00;44.20;;;;;;5076380;28;19994;-68
2023/12/30 09:53:42;;;;;;;;;;;19.90;44.50;;;;;;5094292;28;19920;-68
2023/12/30 09:56:08;;;;;;;;;;;19.80;44.60;;;;;;5076323;28;19927;-68
2023/12/30 09:58:34;;;;;;;;;;;19.70;44.80;;;;;;5076170;28;20336;-68
2023/12/30 10:01:04;;;;;;;;;;;19.60;44.90;;;;;;5094034;28;19920;-68
2023/12/30 10:03:30;;;;;;;;;;;19.50;45.10;;;;;;5092894;28;19916;-68
2023/12/30 10:05:58;;;;;;;;;;;19.50;45.20;;;;;;5092548;28;19916;-68
2023/12/30 10:08:24;;;;;;;;;;;19.40;45.30;;;;;;5076118;28;19997;-68
2023/12/30 10:10:51;;;;;;;;;;;19.40;45.40;;;;;;5092809;28;19920;-68
2023/12/30 10:13:18;;;;;;;;;;;19.30;45.50;;;;;;5093671;28;19916;-68
2023/12/30 10:15:44;;;;;;;;;;;19.20;45.50;;;;;;5092660;28;19920;-68
2023/12/30 10:18:10;;;;;;;;;;;19.20;45.60;;;;;;5075526;28;19916;-68
2023/12/30 10:20:37;;;;;;;;;;;19.20;45.70;;;;;;5075628;28;19920;-68
2023/12/30 10:23:03;;;;;;;;;;;19.10;45.70;;;;;;5092308;28;20440;-67
2023/12/30 10:25:29;;;;;;;;;;;19.10;45.80;;;;;;5093707;28;19916;-68
2023/12/30 10:27:54;;;;;;;;;;;19.00;45.90;;;;;;5093471;28;19924;-68
2023/12/30 10:30:20;;;;;;;;;;;19.00;46.00;;;;;;5093477;28;20386;-68
2023/12/30 10:32:46;;;;;;;;;;;18.90;46.10;;;;;;5093153;28;20436;-68
2023/12/30 10:35:12;;;;;;;;;;;18.80;46.10;;;;;;5075038;28;19916;-68
2023/12/30 10:37:38;;;;;;;;;;;18.80;46.30;;;;;;5093268;28;19923;-70
2023/12/30 10:40:05;;;;;;;;;;;18.70;46.30;;;;;;5075313;28;19923;-70
2023/12/30 10:42:31;;;;;;;;;;;18.70;46.50;;;;;;5092827;28;19930;-70
2023/12/30 10:44:56;;;;;;;;;;;18.60;46.60;;;;;;5093208;28;19998;-70
2023/12/30 10:47:24;;;;;;;;;;;18.50;46.70;;;;;;5093132;28;20371;-70
2023/12/30 10:49:51;;;;;;;;;;;18.50;46.90;;;;;;5075151;28;19916;-70
2023/12/30 10:52:21;;;;;;;;;;;18.40;47.00;;;;;;5074852;28;20359;-70
2023/12/30 10:54:53;;;;;;;;;;;18.40;47.10;;;;;;5092096;28;20003;-70
2023/12/30 10:57:19;;;;;;;;;;;18.30;47.20;;;;;;5093081;28;19916;-70
2023/12/30 10:59:47;;;;;;;;;;;18.30;47.30;;;;;;5074855;28;19962;-70
2023/12/30 11:02:13;;;;;;;;;;;18.20;47.40;;;;;;5093058;28;20251;-70
2023/12/30 11:04:38;;;;;;;;;;;18.10;47.60;;;;;;5074737;28;19927;-70
2023/12/30 11:07:05;;;;;;;;;;;18.10;47.70;;;;;;5074727;28;19925;-70
2023/12/30 11:09:32;;;;;;;;;;;18.00;47.70;;;;;;5074667;28;19916;-70
2023/12/30 11:11:59;;;;;;;;;;;18.00;47.90;;;;;;5092623;28;19931;-70
2023/12/30 11:14:25;;;;;;;;;;;17.90;48.00;;;;;;5074994;28;19923;-70
2023/12/30 11:16:50;;;;;;;;;;;17.90;48.10;;;;;;5074853;28;19916;-70
2023/12/30 11:19:31;;;;;;;;;;;17.80;48.20;;;;;;5074872;28;19987;-70
2023/12/30 11:21:58;;;;;;;;;;;17.80;48.30;;;;;;5074945;28;20268;-70
2023/12/30 11:24:25;;;;;;;;;;;17.70;48.40;;;;;;5074486;28;20390;-70
2023/12/30 11:26:52;;;;;;;;;;;17.70;48.50;;;;;;5092486;28;19916;-70
2023/12/30 11:29:18;;;;;;;;;;;17.60;48.60;;;;;;5091665;28;19923;-70
2023/12/30 11:31:45;;;;;;;;;;;17.60;48.70;;;;;;5091216;28;19920;-69
2023/12/30 11:34:11;;;;;;;;;;;17.60;48.80;;;;;;5091192;28;20351;-70
2023/12/30 11:36:37;;;;;;;;;;;17.50;48.90;;;;;;5074621;28;19923;-71
2023/12/30 11:39:03;;;;;;;;;;;17.50;49.00;;;;;;5074365;28;20286;-70
2023/12/30 11:41:30;;;;;;;;;;;17.40;49.10;;;;;;5074869;28;19969;-71
2023/12/30 11:43:56;;;;;;;;;;;17.40;49.20;;;;;;5074551;28;19916;-70
2023/12/30 11:46:22;;;;;;;;;;;17.40;49.30;;;;;;5074604;28;20312;-70
2023/12/30 11:48:47;;;;;;;;;;;17.30;49.30;;;;;;5074324;28;19916;-70
2023/12/30 11:51:21;;;;;;;;;;;17.30;49.40;;;;;;5074428;28;19930;-71
2023/12/30 11:53:47;;;;;;;;;;;17.20;49.40;;;;;;5092786;28;20371;-69
2023/12/30 11:56:13;;;;;;;;;;;17.20;49.60;;;;;;5096679;28;20014;-70
2023/12/30 11:58:38;;;;;;;;;;;17.20;49.70;;;;;;5078717;28;20351;-69
2023/12/30 12:01:04;;;;;;;;;;;17.20;49.70;;;;;;5078414;28;19923;-70
2023/12/30 12:03:29;;;;;;;;;;;17.10;49.80;;;;;;5077405;28;20416;-70
2023/12/30 12:05:55;;;;;;;;;;;17.10;49.80;;;;;;5078000;28;20419;-66
2023/12/30 12:08:20;;;;;;;;;;;17.10;50.80;;;;;;5076147;28;19924;-67
2023/12/30 12:10:46;;;;;;;;;;;17.00;50.20;;;;;;5076270;28;20379;-69
2023/12/30 12:13:20;;;;;;;;;;;17.00;50.50;;;;;;5092936;28;19932;-67
2023/12/30 12:15:47;;;;;;;;;;;16.90;50.80;;;;;;5094259;28;19928;-67
2023/12/30 12:18:13;;;;;;;;;;;16.80;50.90;;;;;;5094939;28;20291;-68
2023/12/30 12:20:40;;;;;;;;;;;16.80;51.20;;;;;;5076737;28;19920;-68
2023/12/30 12:23:06;;;;;;;;;;;16.70;51.30;;;;;;5076084;28;20007;-68
2023/12/30 12:25:32;;;;;;;;;;;16.70;51.50;;;;;;5094583;28;20002;-67
2023/12/30 12:27:58;;;;;;;;;;;16.70;51.50;;;;;;5076588;28;19920;-68
2023/12/30 12:30:23;;;;;;;;;;;16.70;51.60;;;;;;5075893;28;19920;-68
2023/12/30 12:32:58;;;;;;;;;;;16.70;51.80;;;;;;5093306;28;19924;-68
2023/12/30 12:35:24;;;;;;;;;;;16.60;51.80;;;;;;5091351;28;19927;-68
2023/12/30 12:37:50;;;;;;;;;;;16.60;51.90;;;;;;5093174;28;19920;-68
2023/12/30 12:40:16;;;;;;;;;;;16.60;52.00;;;;;;5092992;28;19920;-67
2023/12/30 12:42:41;;;;;;;;;;;16.60;52.10;;;;;;5092939;28;19926;-67
2023/12/30 12:45:07;;;;;;;;;;;16.60;52.20;;;;;;5093712;28;19920;-66
2023/12/30 12:47:33;;;;;;;;;;;16.60;52.30;;;;;;5076098;28;19924;-67
2023/12/30 12:49:58;;;;;;;;;;;16.50;52.30;;;;;;5076146;28;19920;-68
2023/12/30 12:52:24;;;;;;;;;;;16.50;52.40;;;;;;5094261;28;19924;-68
2023/12/30 12:54:49;;;;;;;;;;;16.50;52.50;;;;;;5076086;28;19920;-67
2023/12/30 12:57:15;;;;;;;;;;;16.50;52.60;;;;;;5075410;28;20496;-68
2023/12/30 12:59:40;;;;;;;;;;;16.50;52.60;;;;;;5071399;28;19974;-68
2023/12/30 13:02:08;;;;;;;;;;;16.50;52.70;;;;;;5088581;28;20739;-68
2023/12/30 13:04:34;;;;;;;;;;;16.50;52.70;;;;;;5075734;28;20010;-68
2023/12/30 13:07:00;;;;;;;;;;;16.50;52.80;;;;;;5075823;28;19974;-69
2023/12/30 13:12:13;;;;;;;;;;;16.40;52.80;;;;;;5089884;28;19919;-67
2023/12/30 13:14:40;;;;;;;;;;;16.50;52.90;;;;;;5088578;28;20003;-66
2023/12/30 13:17:11;;;;;;;;;;;16.40;52.90;;;;;;5088890;28;19983;-67
2023/12/30 13:19:37;;;;;;;;;;;16.40;52.90;;;;;;5088888;28;19927;-67
2023/12/30 13:22:03;;;;;;;;;;;16.40;52.90;;;;;;5088787;28;20287;-67
2023/12/30 13:24:29;;;;;;;;;;;16.40;52.90;;;;;;5088491;28;19921;-67
2023/12/30 13:26:55;;;;;;;;;;;16.40;52.90;;;;;;5088566;28;19930;-67
2023/12/30 13:29:24;;;;;;;;;;;16.40;52.90;;;;;;5088611;28;19942;-67
2023/12/30 13:31:53;;;;;;;;;;;16.40;53.00;;;;;;5088190;28;20017;-67
2023/12/30 13:34:19;;;;;;;;;;;16.40;53.00;;;;;;5089602;28;19974;-67
2023/12/30 13:36:44;;;;;;;;;;;16.30;53.00;;;;;;5089428;28;20537;-67
2023/12/30 13:39:13;;;;;;;;;;;16.30;53.00;;;;;;5089403;28;19920;-67
2023/12/30 13:41:39;;;;;;;;;;;16.30;53.00;;;;;;5089365;28;20323;-67
2023/12/30 13:44:09;;;;;;;;;;;16.40;53.10;;;;;;5088299;28;19924;-67
2023/12/30 13:52:00;;;;;;;;;;;16.20;53.20;;;;;;5110787;27;19941;-67
2023/12/30 13:54:26;;;;;;;;;;;16.20;53.30;;;;;;5110502;28;19920;-67
2023/12/30 13:57:01;;;;;;;;;;;16.20;53.40;;;;;;5109733;28;19920;-67
2023/12/30 13:59:27;;;;;;;;;;;16.10;53.40;;;;;;5109051;28;19923;-68
2023/12/30 14:01:52;;;;;;;;;;;16.10;53.50;;;;;;5109129;28;19927;-67
2023/12/30 14:04:20;;;;;;;;;;;16.10;53.50;;;;;;5110343;28;19920;-68
2023/12/30 14:06:45;;;;;;;;;;;16.10;53.60;;;;;;5110201;28;19920;-67
2023/12/30 14:12:02;;;;;;;;;;;16.00;53.70;;;;;;5131087;27;20024;-67
2023/12/30 14:14:35;;;;;;;;;;;16.00;53.70;;;;;;5129870;28;19923;-67
2023/12/30 14:17:00;;;;;;;;;;;16.00;53.80;;;;;;5129598;28;19919;-67
2023/12/30 14:19:26;;;;;;;;;;;16.00;53.90;;;;;;5129603;28;19920;-67
2023/12/30 14:21:52;;;;;;;;;;;15.90;54.00;;;;;;5130538;27;19919;-67
2023/12/30 14:24:19;;;;;;;;;;;15.90;54.10;;;;;;5129910;28;20015;-67